Time;durP1;ratioP1;P1;durP2;ratioP2;P2;SDS_P1;SDS_P2;PMS_P1;PMS_P2;Temp;Humidity;BMP_temperature;BMP_pressure;BME280_temperature;BME280_humidity;BME280_pressure;Samples;Min_cycle;Max_cycle;Signal;HPM_P1;HPM_P2
2022/03/12 00:00:29;;;;;;;16.70;7.70;;;-1.10;99.90;;;;;;5076674;28;20017;-69
2022/03/12 00:02:56;;;;;;;15.55;7.57;;;-1.10;99.90;;;;;;5076616;28;20021;-69
2022/03/12 00:05:23;;;;;;;13.35;7.35;;;-1.20;99.90;;;;;;5076801;28;20059;-69
2022/03/12 00:07:51;;;;;;;15.88;8.00;;;-1.20;99.90;;;;;;5076833;28;20095;-69
2022/03/12 00:10:18;;;;;;;18.98;8.18;;;-1.20;99.90;;;;;;5076584;28;20108;-69
2022/03/12 00:12:44;;;;;;;18.70;7.57;;;-1.20;99.90;;;;;;5076463;28;20028;-69
2022/03/12 00:15:12;;;;;;;14.23;6.38;;;-1.30;99.90;;;;;;5076695;28;20032;-69
2022/03/12 00:17:45;;;;;;;12.57;6.10;;;-1.40;99.90;;;;;;5076643;28;20476;-69
2022/03/12 00:20:18;;;;;;;10.52;5.72;;;-1.50;99.90;;;;;;5076662;28;20473;-69
2022/03/12 00:22:47;;;;;;;12.20;6.18;;;-1.50;99.90;;;;;;5076310;28;20025;-69
2022/03/12 00:25:19;;;;;;;14.63;5.50;;;-1.40;99.90;;;;;;5076425;28;20046;-69
2022/03/12 00:27:45;;;;;;;13.55;5.63;;;-1.50;99.90;;;;;;5076240;28;20020;-69
2022/03/12 00:30:16;;;;;;;14.88;5.82;;;-1.50;99.90;;;;;;5076117;28;20423;-69
2022/03/12 00:32:42;;;;;;;11.40;5.95;;;-1.50;99.90;;;;;;5076159;28;20028;-69
2022/03/12 00:35:11;;;;;;;12.02;6.57;;;-1.50;99.90;;;;;;5076591;28;20492;-69
2022/03/12 00:37:38;;;;;;;13.63;6.93;;;-1.50;99.90;;;;;;5076001;28;20052;-68
2022/03/12 00:40:05;;;;;;;15.60;6.75;;;-1.50;99.90;;;;;;5075962;28;20418;-69
2022/03/12 00:42:31;;;;;;;17.67;7.00;;;-1.50;99.90;;;;;;5074668;28;20081;-69
2022/03/12 00:44:57;;;;;;;13.30;7.22;;;-1.40;99.90;;;;;;5075856;28;20068;-69
2022/03/12 00:47:24;;;;;;;16.63;7.38;;;-1.40;99.90;;;;;;5076152;28;20396;-69
2022/03/12 00:49:50;;;;;;;14.45;7.28;;;-1.50;99.90;;;;;;5075739;28;20016;-69
2022/03/12 00:52:16;;;;;;;12.75;6.60;;;-1.50;99.90;;;;;;5075792;28;20377;-69
2022/03/12 00:54:43;;;;;;;12.63;6.38;;;-1.50;99.90;;;;;;5075191;28;20032;-68
2022/03/12 00:57:11;;;;;;;12.02;6.35;;;-1.60;99.90;;;;;;5075578;28;20039;-69
2022/03/12 00:59:38;;;;;;;16.83;7.60;;;-1.70;99.90;;;;;;5075851;28;20534;-68
2022/03/12 01:02:05;;;;;;;15.85;6.80;;;-1.70;99.90;;;;;;5075567;28;20024;-67
2022/03/12 01:04:31;;;;;;;13.00;7.25;;;-1.70;99.90;;;;;;5075764;28;20024;-68
2022/03/12 01:06:56;;;;;;;14.35;7.03;;;-1.70;99.90;;;;;;5075500;28;20104;-68
2022/03/12 01:09:22;;;;;;;17.98;7.72;;;-1.70;99.90;;;;;;5075883;28;20476;-69
2022/03/12 01:11:48;;;;;;;22.15;7.65;;;-1.80;99.90;;;;;;5075410;28;20028;-68
2022/03/12 01:14:15;;;;;;;14.15;6.90;;;-1.80;99.90;;;;;;5075930;28;20024;-69
2022/03/12 01:16:41;;;;;;;16.65;6.82;;;-1.80;99.90;;;;;;5074004;28;20024;-69
2022/03/12 01:19:07;;;;;;;12.95;7.03;;;-1.90;99.90;;;;;;5073982;28;20032;-69
2022/03/12 01:21:33;;;;;;;14.80;6.47;;;-1.90;99.90;;;;;;5075496;28;20372;-69
2022/03/12 01:23:58;;;;;;;15.35;7.38;;;-1.90;99.90;;;;;;5075094;28;20027;-69
2022/03/12 01:26:25;;;;;;;14.38;6.15;;;-1.90;99.90;;;;;;5075111;28;20537;-69
2022/03/12 01:28:52;;;;;;;14.13;6.65;;;-1.90;99.90;;;;;;5074971;28;20020;-69
2022/03/12 01:31:18;;;;;;;18.27;7.30;;;-1.90;99.90;;;;;;5075027;28;20020;-69
2022/03/12 01:33:44;;;;;;;11.60;6.05;;;-2.00;99.90;;;;;;5074933;28;20027;-69
2022/03/12 01:36:10;;;;;;;13.98;6.03;;;-2.00;99.90;;;;;;5074984;28;20048;-69
2022/03/12 01:38:47;;;;;;;13.45;6.03;;;-2.10;99.90;;;;;;5075132;28;20035;-69
2022/03/12 01:41:13;;;;;;;13.10;6.18;;;-2.10;99.90;;;;;;5074760;28;20052;-69
2022/03/12 01:43:43;;;;;;;15.82;7.10;;;-2.10;99.90;;;;;;5074960;28;20078;-69
2022/03/12 01:46:10;;;;;;;19.27;7.65;;;-2.10;99.90;;;;;;5074725;28;20012;-69
2022/03/12 01:48:47;;;;;;;15.00;7.13;;;-2.10;99.90;;;;;;5074654;28;20070;-69
2022/03/12 01:51:15;;;;;;;14.40;6.68;;;-2.10;99.90;;;;;;5073417;28;20427;-69
2022/03/12 01:53:40;;;;;;;21.48;7.57;;;-2.10;99.90;;;;;;5074852;28;20029;-69
2022/03/12 01:56:06;;;;;;;15.07;6.68;;;-2.10;99.90;;;;;;5074513;28;20025;-68
2022/03/12 01:58:35;;;;;;;16.55;7.05;;;-2.10;99.90;;;;;;5074261;28;20109;-69
2022/03/12 02:01:01;;;;;;;16.73;7.05;;;-2.20;99.90;;;;;;5074327;28;20024;-69
2022/03/12 02:03:29;;;;;;;16.23;7.38;;;-2.30;99.90;;;;;;5074272;28;20034;-69
2022/03/12 02:05:59;;;;;;;14.95;6.68;;;-2.40;99.90;;;;;;5073607;28;20111;-69
2022/03/12 02:08:24;;;;;;;12.93;6.53;;;-2.40;99.90;;;;;;5074061;28;20020;-69
2022/03/12 02:10:51;;;;;;;13.75;6.53;;;-2.40;99.90;;;;;;5074447;28;20423;-69
2022/03/12 02:13:17;;;;;;;11.25;5.57;;;-2.40;99.90;;;;;;5074440;28;20071;-69
2022/03/12 02:15:44;;;;;;;13.23;5.80;;;-2.30;99.90;;;;;;5072855;28;20042;-69
2022/03/12 02:18:13;;;;;;;11.10;4.72;;;-2.30;99.90;;;;;;5074347;28;20096;-69
2022/03/12 02:20:39;;;;;;;12.32;5.90;;;-2.30;99.90;;;;;;5074046;28;20427;-69
2022/03/12 02:23:08;;;;;;;11.70;5.20;;;-2.20;99.90;;;;;;5072724;28;20020;-69
2022/03/12 02:25:34;;;;;;;12.07;5.80;;;-2.30;99.90;;;;;;5072646;28;20063;-69
2022/03/12 02:28:09;;;;;;;12.25;6.00;;;-2.20;99.90;;;;;;5073891;28;20032;-69
2022/03/12 02:30:42;;;;;;;11.40;5.70;;;-2.30;99.90;;;;;;5074106;28;20052;-69
2022/03/12 02:33:08;;;;;;;14.98;7.13;;;-2.30;99.90;;;;;;5074126;28;20097;-69
2022/03/12 02:35:37;;;;;;;15.27;6.53;;;-2.30;99.90;;;;;;5072818;28;20052;-69
2022/03/12 02:38:04;;;;;;;13.25;6.43;;;-2.30;99.90;;;;;;5073773;28;20379;-69
2022/03/12 02:40:31;;;;;;;12.65;5.78;;;-2.30;99.90;;;;;;5073968;28;20419;-69
2022/03/12 02:42:58;;;;;;;11.43;5.47;;;-2.40;99.90;;;;;;5073682;28;20052;-69
2022/03/12 02:45:26;;;;;;;11.55;6.05;;;-2.40;99.90;;;;;;5073596;28;20043;-69
2022/03/12 02:47:54;;;;;;;13.35;6.20;;;-2.40;99.90;;;;;;5073624;28;20480;-69
2022/03/12 02:50:21;;;;;;;13.13;6.03;;;-2.50;99.90;;;;;;5073579;28;20021;-69
2022/03/12 02:52:46;;;;;;;13.52;6.20;;;-2.50;99.90;;;;;;5072296;28;20468;-69
2022/03/12 02:55:16;;;;;;;13.55;5.68;;;-2.50;99.90;;;;;;5073539;28;20043;-69
2022/03/12 02:57:44;;;;;;;11.60;5.72;;;-2.60;99.90;;;;;;5073542;28;20033;-70
2022/03/12 03:00:12;;;;;;;13.02;6.60;;;-2.60;99.90;;;;;;5073461;28;20048;-69
2022/03/12 03:02:41;;;;;;;15.13;6.47;;;-2.50;99.90;;;;;;5072234;28;20538;-70
2022/03/12 03:05:45;;;;;;;18.48;7.15;;;-2.60;99.90;;;;;;5073690;28;20552;-69
2022/03/12 03:08:10;;;;;;;12.65;6.10;;;-2.60;99.90;;;;;;5073040;28;20546;-70
2022/03/12 03:10:37;;;;;;;15.88;6.40;;;-2.70;99.90;;;;;;5073667;28;20021;-69
2022/03/12 03:13:20;;;;;;;16.80;7.38;;;-2.70;99.90;;;;;;5073610;28;20020;-69
2022/03/12 03:15:59;;;;;;;12.90;6.07;;;-2.70;99.90;;;;;;5073440;28;20495;-70
2022/03/12 03:18:28;;;;;;;12.75;5.55;;;-2.80;99.90;;;;;;5072893;28;20024;-70
2022/03/12 03:20:54;;;;;;;14.60;6.50;;;-2.70;99.90;;;;;;5073268;28;20051;-69
2022/03/12 03:23:24;;;;;;;12.38;5.93;;;-2.80;99.90;;;;;;5073681;28;20020;-70
2022/03/12 03:25:49;;;;;;;13.25;5.65;;;-2.80;99.90;;;;;;5073236;28;20480;-69
2022/03/12 03:28:15;;;;;;;12.50;6.07;;;-2.80;99.90;;;;;;5073753;28;20025;-70
2022/03/12 03:30:41;;;;;;;12.82;5.95;;;-2.80;99.90;;;;;;5073147;28;20024;-70
2022/03/12 03:33:09;;;;;;;12.88;6.47;;;-2.80;99.90;;;;;;5073407;28;20149;-70
2022/03/12 03:35:39;;;;;;;16.38;6.20;;;-2.80;99.90;;;;;;5073667;28;20021;-70
2022/03/12 03:38:06;;;;;;;11.38;5.85;;;-2.80;99.90;;;;;;5073111;28;20499;-70
2022/03/12 03:40:32;;;;;;;13.88;6.22;;;-2.80;99.90;;;;;;5071811;28;20182;-70
2022/03/12 03:42:58;;;;;;;17.42;6.28;;;-2.90;99.90;;;;;;5073343;28;20043;-70
2022/03/12 03:45:27;;;;;;;12.38;5.88;;;-2.90;99.90;;;;;;5072962;28;20029;-70
2022/03/12 03:47:55;;;;;;;14.13;5.88;;;-2.90;99.90;;;;;;5073306;28;20423;-70
2022/03/12 03:50:25;;;;;;;14.07;6.20;;;-2.90;99.90;;;;;;5072919;28;20021;-69
2022/03/12 03:53:04;;;;;;;12.47;6.33;;;-2.80;99.90;;;;;;5073610;28;20020;-70
2022/03/12 03:55:31;;;;;;;12.15;5.70;;;-2.80;99.90;;;;;;5073522;28;20044;-70
2022/03/12 03:57:58;;;;;;;12.57;6.10;;;-2.80;99.90;;;;;;5072852;28;20028;-70
2022/03/12 04:00:24;;;;;;;13.18;6.57;;;-2.90;99.90;;;;;;5072847;28;20088;-70
2022/03/12 04:03:04;;;;;;;14.25;6.55;;;-2.90;99.90;;;;;;5072906;28;20473;-70
2022/03/12 04:05:35;;;;;;;13.23;6.53;;;-3.00;99.90;;;;;;5073133;28;20043;-70
2022/03/12 04:08:03;;;;;;;15.20;6.88;;;-3.10;99.90;;;;;;5072875;28;20380;-70
2022/03/12 04:10:29;;;;;;;10.73;5.65;;;-3.10;99.90;;;;;;5072796;28;20021;-69
2022/03/12 04:12:57;;;;;;;13.27;5.95;;;-3.20;99.90;;;;;;5072798;28;20025;-70
2022/03/12 04:15:23;;;;;;;12.63;6.30;;;-3.30;99.90;;;;;;5073067;28;20031;-70
2022/03/12 04:17:51;;;;;;;18.58;6.20;;;-3.30;99.90;;;;;;5072754;28;20109;-69
2022/03/12 04:20:21;;;;;;;13.00;6.57;;;-3.30;99.90;;;;;;5072702;28;20020;-69
2022/03/12 04:22:50;;;;;;;10.70;5.40;;;-3.40;99.90;;;;;;5071458;28;20048;-69
2022/03/12 04:25:17;;;;;;;14.68;6.07;;;-3.40;99.90;;;;;;5072885;28;20380;-69
2022/03/12 04:27:44;;;;;;;12.80;6.18;;;-3.40;99.90;;;;;;5071346;28;20516;-70
2022/03/12 04:30:11;;;;;;;14.05;6.80;;;-3.40;99.90;;;;;;5074052;28;20016;-70
2022/03/12 04:32:39;;;;;;;12.45;5.85;;;-3.40;99.90;;;;;;5075179;28;20107;-70
2022/03/12 04:35:06;;;;;;;13.15;6.22;;;-3.50;99.90;;;;;;5076162;28;20016;-69
2022/03/12 04:37:34;;;;;;;11.40;5.85;;;-3.50;99.90;;;;;;5076625;28;20495;-69
2022/03/12 04:39:59;;;;;;;12.98;5.80;;;-3.50;99.90;;;;;;5075961;28;20020;-69
2022/03/12 04:42:25;;;;;;;11.80;5.13;;;-3.50;99.90;;;;;;5075953;28;20031;-69
2022/03/12 04:44:51;;;;;;;11.98;5.72;;;-3.50;99.90;;;;;;5074600;28;20396;-69
2022/03/12 04:47:19;;;;;;;13.82;5.78;;;-3.40;99.90;;;;;;5075850;28;20017;-69
2022/03/12 04:49:46;;;;;;;12.50;5.55;;;-3.50;99.90;;;;;;5075863;28;20040;-69
2022/03/12 04:52:12;;;;;;;12.73;5.95;;;-3.50;99.90;;;;;;5074532;28;20496;-69
2022/03/12 04:54:39;;;;;;;13.13;5.75;;;-3.40;99.90;;;;;;5076081;28;20030;-69
2022/03/12 04:57:05;;;;;;;12.23;5.38;;;-3.50;99.90;;;;;;5075752;28;20032;-70
2022/03/12 04:59:31;;;;;;;11.07;6.10;;;-3.40;99.90;;;;;;5075588;28;20115;-69
2022/03/12 05:01:57;;;;;;;12.38;5.65;;;-3.40;99.90;;;;;;5075635;28;20108;-69
2022/03/12 05:04:23;;;;;;;12.90;5.50;;;-3.40;99.90;;;;;;5074234;28;20021;-69
2022/03/12 05:06:49;;;;;;;13.52;5.97;;;-3.40;99.90;;;;;;5076071;28;20017;-69
2022/03/12 05:09:14;;;;;;;14.70;5.90;;;-3.40;99.90;;;;;;5075650;28;20052;-69
2022/03/12 05:11:40;;;;;;;11.43;5.43;;;-3.40;99.90;;;;;;5075710;28;20025;-69
2022/03/12 05:14:10;;;;;;;15.73;6.72;;;-3.40;99.90;;;;;;5075670;28;20025;-69
2022/03/12 05:16:36;;;;;;;16.52;7.75;;;-3.40;99.90;;;;;;5075338;28;20087;-69
2022/03/12 05:19:06;;;;;;;16.55;8.73;;;-3.50;99.90;;;;;;5073879;28;20032;-69
2022/03/12 05:21:33;;;;;;;17.05;8.43;;;-3.40;99.90;;;;;;5075866;28;20040;-69
2022/03/12 05:23:58;;;;;;;17.27;6.85;;;-3.40;99.90;;;;;;5075511;28;20082;-69
2022/03/12 05:26:24;;;;;;;14.82;6.45;;;-3.40;99.90;;;;;;5075417;28;20025;-69
2022/03/12 05:28:50;;;;;;;13.07;5.32;;;-3.40;99.90;;;;;;5075356;28;20021;-68
2022/03/12 05:31:17;;;;;;;13.95;5.90;;;-3.40;99.90;;;;;;5075003;28;20024;-69
2022/03/12 05:33:43;;;;;;;10.80;5.07;;;-3.40;99.90;;;;;;5075044;28;20024;-69
2022/03/12 05:36:09;;;;;;;13.60;5.25;;;-3.40;99.90;;;;;;5074932;28;20024;-69
2022/03/12 05:38:36;;;;;;;16.10;8.30;;;-3.40;99.90;;;;;;5074937;28;20493;-69
2022/03/12 05:41:06;;;;;;;19.60;10.20;;;-3.40;99.90;;;;;;5075546;28;20028;-69
2022/03/12 05:43:33;;;;;;;17.65;10.00;;;-3.40;99.90;;;;;;5075072;28;20089;-69
2022/03/12 05:45:59;;;;;;;37.63;16.25;;;-3.40;99.90;;;;;;5075024;28;20399;-68
2022/03/12 05:48:26;;;;;;;37.63;16.27;;;-3.30;99.90;;;;;;5074980;28;20027;-68
2022/03/12 05:50:53;;;;;;;46.40;19.60;;;-3.30;99.90;;;;;;5074599;28;20027;-68
2022/03/12 05:53:19;;;;;;;41.75;18.25;;;-3.30;99.90;;;;;;5074882;28;20143;-68
2022/03/12 05:55:47;;;;;;;40.53;16.58;;;-3.30;99.90;;;;;;5074567;28;20099;-68
2022/03/12 05:58:17;;;;;;;29.23;12.27;;;-3.30;99.90;;;;;;5074386;28;20039;-68
2022/03/12 06:00:43;;;;;;;30.02;11.73;;;-3.30;99.90;;;;;;5074479;28;20154;-68
2022/03/12 06:03:12;;;;;;;58.30;19.67;;;-3.30;99.90;;;;;;5074420;28;20039;-68
2022/03/12 06:05:41;;;;;;;95.80;32.45;;;-3.30;99.90;;;;;;5074544;28;20035;-68
2022/03/12 06:08:21;;;;;;;120.32;37.38;;;-3.30;99.90;;;;;;5074576;28;20488;-68
2022/03/12 06:10:51;;;;;;;23.70;10.80;;;-3.20;99.90;;;;;;5073005;28;20025;-68
2022/03/12 06:13:17;;;;;;;23.77;8.88;;;-3.40;99.90;;;;;;5074460;28;20074;-68
2022/03/12 06:15:45;;;;;;;18.20;7.68;;;-3.40;99.90;;;;;;5074442;28;20487;-68
2022/03/12 06:18:11;;;;;;;16.60;6.43;;;-3.40;99.90;;;;;;5074622;28;20028;-68
2022/03/12 06:20:37;;;;;;;15.52;6.93;;;-3.40;99.90;;;;;;5072684;28;20074;-68
2022/03/12 06:23:04;;;;;;;17.00;6.93;;;-3.30;99.90;;;;;;5074294;28;20028;-68
2022/03/12 06:25:30;;;;;;;14.50;6.97;;;-3.30;99.90;;;;;;5073881;28;20038;-68
2022/03/12 06:27:55;;;;;;;19.13;7.40;;;-3.40;99.90;;;;;;5073933;28;20426;-68
2022/03/12 06:30:24;;;;;;;16.70;7.40;;;-3.30;99.90;;;;;;5073809;28;20016;-68
2022/03/12 06:32:51;;;;;;;17.27;7.13;;;-3.30;99.90;;;;;;5073795;28;20532;-68
2022/03/12 06:35:18;;;;;;;23.30;7.93;;;-3.30;99.90;;;;;;5073824;28;20469;-68
2022/03/12 06:37:44;;;;;;;20.02;8.20;;;-3.20;99.90;;;;;;5072503;28;20028;-68
2022/03/12 06:40:14;;;;;;;17.50;8.25;;;-3.10;99.90;;;;;;5073692;28;20021;-68
2022/03/12 06:42:41;;;;;;;26.25;8.77;;;-3.00;99.90;;;;;;5072461;28;20025;-68
2022/03/12 06:45:08;;;;;;;19.35;7.38;;;-2.90;99.90;;;;;;5073598;28;20038;-68
2022/03/12 06:47:38;;;;;;;16.42;7.22;;;-2.90;99.90;;;;;;5073676;28;20145;-68
2022/03/12 06:50:05;;;;;;;17.92;7.40;;;-2.80;99.90;;;;;;5073549;28;20016;-68
2022/03/12 06:52:31;;;;;;;18.05;7.28;;;-2.80;99.90;;;;;;5073019;28;20111;-68
2022/03/12 06:54:57;;;;;;;16.38;7.00;;;-2.80;99.90;;;;;;5073829;28;20017;-68
2022/03/12 06:57:23;;;;;;;17.90;6.70;;;-2.80;99.90;;;;;;5073426;28;20078;-69
2022/03/12 06:59:49;;;;;;;17.38;7.25;;;-2.70;99.90;;;;;;5072192;28;20025;-68
2022/03/12 07:02:15;;;;;;;16.60;6.90;;;-2.60;99.90;;;;;;5073674;28;20097;-68
2022/03/12 07:04:41;;;;;;;17.48;7.35;;;-2.50;99.90;;;;;;5073674;28;20020;-68
2022/03/12 07:07:06;;;;;;;20.30;7.45;;;-2.40;99.90;;;;;;5073429;28;20043;-68
2022/03/12 07:09:34;;;;;;;15.38;7.05;;;-2.40;99.90;;;;;;5073326;28;20047;-68
2022/03/12 07:12:00;;;;;;;13.80;6.88;;;-2.30;99.90;;;;;;5073964;28;20016;-68
2022/03/12 07:14:26;;;;;;;15.93;6.88;;;-2.20;99.90;;;;;;5073344;28;20082;-68
2022/03/12 07:16:54;;;;;;;22.65;8.35;;;-2.10;99.90;;;;;;5073361;28;20028;-68
2022/03/12 07:19:20;;;;;;;17.73;7.28;;;-2.10;99.90;;;;;;5073270;28;20531;-68
2022/03/12 07:21:46;;;;;;;19.67;8.35;;;-2.00;99.90;;;;;;5073321;28;20028;-68
2022/03/12 07:24:12;;;;;;;16.98;8.00;;;-2.00;99.90;;;;;;5073179;28;20020;-68
2022/03/12 07:26:39;;;;;;;17.58;7.53;;;-1.90;99.90;;;;;;5073548;28;20028;-68
2022/03/12 07:29:05;;;;;;;22.08;6.97;;;-2.00;99.90;;;;;;5071903;28;20115;-68
2022/03/12 07:31:31;;;;;;;16.35;6.60;;;-2.00;99.90;;;;;;5073154;28;20024;-68
2022/03/12 07:33:57;;;;;;;13.50;6.72;;;-1.90;99.90;;;;;;5073165;28;20035;-68
2022/03/12 07:36:23;;;;;;;18.20;8.75;;;-1.90;99.90;;;;;;5073426;28;20515;-68
2022/03/12 07:38:48;;;;;;;16.20;8.57;;;-1.80;99.90;;;;;;5073317;28;20063;-68
2022/03/12 07:41:14;;;;;;;19.30;8.38;;;-1.60;99.90;;;;;;5073064;28;20031;-68
2022/03/12 07:43:40;;;;;;;15.40;7.03;;;-1.60;99.90;;;;;;5072967;28;20389;-68
2022/03/12 07:46:06;;;;;;;17.20;7.35;;;-1.40;99.90;;;;;;5073025;28;20017;-68
2022/03/12 07:48:32;;;;;;;17.92;7.78;;;-1.30;99.90;;;;;;5073201;28;20193;-68
2022/03/12 07:51:00;;;;;;;17.45;7.35;;;-1.20;99.90;;;;;;5072972;28;20017;-68
2022/03/12 07:53:26;;;;;;;18.15;7.78;;;-1.10;99.90;;;;;;5072943;28;20090;-68
2022/03/12 07:55:51;;;;;;;16.10;8.00;;;-0.90;99.90;;;;;;5073477;28;20029;-68
2022/03/12 07:58:18;;;;;;;13.82;6.75;;;-0.90;99.90;;;;;;5072818;28;20062;-68
2022/03/12 08:00:44;;;;;;;13.80;7.40;;;-0.80;99.90;;;;;;5072836;28;20064;-68
2022/03/12 08:03:10;;;;;;;15.52;7.35;;;-0.70;99.90;;;;;;5072896;28;20438;-68
2022/03/12 08:05:36;;;;;;;15.90;7.82;;;-0.70;99.90;;;;;;5076909;28;20104;-68
2022/03/12 08:08:02;;;;;;;15.68;7.40;;;-0.60;99.90;;;;;;5076668;28;20420;-68
2022/03/12 08:10:28;;;;;;;14.38;7.20;;;-0.60;99.90;;;;;;5076791;28;20021;-68
2022/03/12 08:12:58;;;;;;;14.95;7.10;;;-0.50;99.90;;;;;;5076877;28;20017;-68
2022/03/12 08:15:24;;;;;;;14.48;7.15;;;-0.40;99.90;;;;;;5076777;28;20036;-68
2022/03/12 08:17:49;;;;;;;15.95;7.28;;;-0.30;99.90;;;;;;5076722;28;20021;-68
2022/03/12 08:20:19;;;;;;;14.50;7.50;;;-0.20;99.90;;;;;;5076450;28;20058;-68
2022/03/12 08:22:45;;;;;;;15.13;7.47;;;-0.10;99.90;;;;;;5076383;28;20059;-68
2022/03/12 08:25:13;;;;;;;17.42;8.00;;;0.00;99.90;;;;;;5076267;28;20074;-68
2022/03/12 08:27:39;;;;;;;15.50;7.80;;;0.10;99.90;;;;;;5076296;28;20040;-68
2022/03/12 08:30:10;;;;;;;16.50;7.90;;;0.20;99.60;;;;;;5076432;28;20024;-68
2022/03/12 08:32:36;;;;;;;15.57;7.53;;;0.30;99.40;;;;;;5076275;28;20025;-68
2022/03/12 08:35:05;;;;;;;15.95;7.88;;;0.40;99.40;;;;;;5076137;28;20349;-68
2022/03/12 08:37:31;;;;;;;16.40;7.72;;;0.50;99.20;;;;;;5074852;28;20078;-68
2022/03/12 08:39:57;;;;;;;19.42;8.63;;;0.60;99.10;;;;;;5076249;28;20017;-68
2022/03/12 08:42:24;;;;;;;18.42;8.15;;;0.70;98.30;;;;;;5076039;28;20051;-69
2022/03/12 08:44:51;;;;;;;17.30;9.02;;;0.90;97.70;;;;;;5076258;28;20023;-70
2022/03/12 08:47:17;;;;;;;18.95;8.27;;;0.90;96.80;;;;;;5075982;28;20025;-68
2022/03/12 08:49:42;;;;;;;20.70;9.05;;;1.10;96.10;;;;;;5075968;28;20068;-68
2022/03/12 08:52:08;;;;;;;15.82;8.38;;;1.20;95.30;;;;;;5075840;28;20107;-68
2022/03/12 08:54:34;;;;;;;19.40;9.35;;;1.30;94.30;;;;;;5075823;28;20028;-68
2022/03/12 08:57:00;;;;;;;18.98;9.85;;;1.40;93.70;;;;;;5075645;28;20032;-68
2022/03/12 08:59:26;;;;;;;28.15;14.77;;;1.50;93.60;;;;;;5075666;28;20490;-68
2022/03/12 09:01:52;;;;;;;25.15;13.55;;;1.70;93.00;;;;;;5075945;28;20043;-68
2022/03/12 09:04:19;;;;;;;28.67;14.55;;;1.80;92.40;;;;;;5074328;28;20025;-68
2022/03/12 09:06:46;;;;;;;25.25;13.52;;;1.90;92.20;;;;;;5075836;28;20074;-68
2022/03/12 09:09:12;;;;;;;23.42;12.65;;;2.00;91.30;;;;;;5075491;28;20024;-68
2022/03/12 09:11:38;;;;;;;23.73;11.93;;;2.10;91.00;;;;;;5075496;28;20050;-68
2022/03/12 09:14:04;;;;;;;22.73;11.65;;;2.20;90.60;;;;;;5075456;28;20035;-68
2022/03/12 09:16:30;;;;;;;22.75;11.13;;;2.40;89.50;;;;;;5074772;28;20016;-68
2022/03/12 09:18:56;;;;;;;18.92;9.63;;;2.50;87.70;;;;;;5075283;28;20028;-68
2022/03/12 09:21:22;;;;;;;15.90;8.65;;;2.60;85.20;;;;;;5075248;28;20025;-68
2022/03/12 09:23:47;;;;;;;13.52;7.63;;;2.70;82.80;;;;;;5075176;28;20095;-68
2022/03/12 09:26:14;;;;;;;18.88;7.82;;;2.80;82.50;;;;;;5075220;28;20036;-68
2022/03/12 09:28:41;;;;;;;17.48;9.80;;;2.90;81.20;;;;;;5075092;28;20092;-68
2022/03/12 09:31:06;;;;;;;20.27;10.02;;;3.10;81.20;;;;;;5074889;28;20147;-68
2022/03/12 09:33:32;;;;;;;23.02;10.40;;;3.20;81.40;;;;;;5075011;28;20503;-68
2022/03/12 09:35:58;;;;;;;22.10;11.23;;;3.30;81.00;;;;;;5075537;28;20538;-68
2022/03/12 09:38:24;;;;;;;19.77;10.82;;;3.50;82.20;;;;;;5074926;28;20032;-68
2022/03/12 09:40:50;;;;;;;18.15;9.10;;;3.60;80.40;;;;;;5075069;28;20024;-68
2022/03/12 09:43:16;;;;;;;14.48;7.15;;;3.70;78.00;;;;;;5074820;28;20031;-68
2022/03/12 09:45:41;;;;;;;13.18;7.00;;;3.90;75.80;;;;;;5074720;28;20112;-68
2022/03/12 09:48:08;;;;;;;15.35;7.75;;;4.00;74.10;;;;;;5074812;28;20020;-68
2022/03/12 09:50:34;;;;;;;12.75;7.47;;;4.20;75.20;;;;;;5073385;28;20025;-67
2022/03/12 09:53:00;;;;;;;14.52;7.90;;;4.30;74.50;;;;;;5074922;28;20028;-68
2022/03/12 09:55:26;;;;;;;14.15;7.10;;;4.40;73.40;;;;;;5074882;28;20021;-68
2022/03/12 09:57:52;;;;;;;11.55;5.88;;;4.50;71.90;;;;;;5074484;28;20059;-68
2022/03/12 10:00:19;;;;;;;11.50;6.47;;;4.60;69.50;;;;;;5074443;28;20110;-68
2022/03/12 10:02:45;;;;;;;13.40;6.75;;;4.70;69.50;;;;;;5074499;28;20024;-68
2022/03/12 10:05:13;;;;;;;14.90;7.47;;;4.70;69.30;;;;;;5074861;28;20052;-68
2022/03/12 10:07:41;;;;;;;15.40;6.68;;;4.80;69.30;;;;;;5074410;28;20074;-68
2022/03/12 10:10:11;;;;;;;17.98;7.95;;;4.90;69.40;;;;;;5074249;28;20016;-68
2022/03/12 10:12:37;;;;;;;16.00;7.45;;;5.10;65.20;;;;;;5074573;28;20043;-68
2022/03/12 10:15:03;;;;;;;14.02;7.57;;;5.20;65.10;;;;;;5074205;28;20158;-68
2022/03/12 10:17:30;;;;;;;14.60;7.00;;;5.40;62.30;;;;;;5074751;28;20027;-68
2022/03/12 10:19:56;;;;;;;16.65;7.25;;;5.60;60.20;;;;;;5074019;28;20039;-68
2022/03/12 10:22:23;;;;;;;15.82;7.22;;;5.70;59.20;;;;;;5074064;28;20032;-68
2022/03/12 10:24:49;;;;;;;13.57;6.55;;;5.90;59.40;;;;;;5074232;28;20468;-68
2022/03/12 10:27:15;;;;;;;11.82;6.00;;;6.00;58.40;;;;;;5073141;28;20020;-69
2022/03/12 10:29:41;;;;;;;12.40;7.38;;;6.10;58.00;;;;;;5074079;28;20074;-68
2022/03/12 10:32:27;;;;;;;12.27;6.88;;;6.20;56.00;;;;;;5073843;28;20035;-68
2022/03/12 10:34:56;;;;;;;12.27;6.05;;;6.40;56.70;;;;;;5074210;28;20423;-69
2022/03/12 10:37:25;;;;;;;11.45;5.78;;;6.40;57.60;;;;;;5072615;28;20035;-68
2022/03/12 10:40:14;;;;;;;13.85;6.93;;;6.40;57.60;;;;;;5073734;28;20020;-69
2022/03/12 10:42:53;;;;;;;12.93;5.97;;;6.50;57.20;;;;;;5073811;28;20031;-69
2022/03/12 10:45:24;;;;;;;11.52;5.63;;;6.60;54.30;;;;;;5073946;28;20021;-67
2022/03/12 10:47:56;;;;;;;11.60;5.85;;;6.70;55.00;;;;;;5074007;28;20099;-67
2022/03/12 10:50:27;;;;;;;11.70;5.40;;;6.80;55.40;;;;;;5073913;28;20091;-67
2022/03/12 10:52:57;;;;;;;;;;;6.90;54.70;;;;;;5074315;28;20060;-67
2022/03/12 10:55:33;;;;;;;9.45;5.25;;;7.00;52.30;;;;;;5072312;28;20360;-68
2022/03/12 10:58:03;;;;;;;11.75;5.70;;;7.10;49.50;;;;;;5073438;28;20037;-68
2022/03/12 11:00:34;;;;;;;13.98;5.50;;;7.30;51.30;;;;;;5072223;28;20553;-67
2022/03/12 11:03:02;;;;;;;8.43;4.60;;;7.40;50.60;;;;;;5073845;28;20472;-68
2022/03/12 11:05:32;;;;;;;11.07;5.03;;;7.50;49.30;;;;;;5073939;28;20040;-68
2022/03/12 11:08:23;;;;;;;11.68;4.60;;;7.60;50.80;;;;;;5073481;28;20038;-70
2022/03/12 11:11:13;;;;;;;10.60;4.45;;;7.60;48.70;;;;;;5073490;28;20025;-71
2022/03/12 11:13:51;;;;;;;10.73;4.57;;;7.70;49.20;;;;;;5073379;28;20046;-71
2022/03/12 11:16:17;;;;;;;10.80;4.40;;;7.70;49.50;;;;;;5073653;28;20020;-71
2022/03/12 11:19:07;;;;;;;7.15;3.58;;;7.70;48.70;;;;;;5073312;28;20384;-70
2022/03/12 11:21:43;;;;;;;6.83;4.07;;;7.70;49.90;;;;;;5072108;28;20035;-71
2022/03/12 11:24:22;;;;;;;11.60;4.22;;;7.70;48.90;;;;;;5073221;28;20489;-70
2022/03/12 11:26:49;;;;;;;8.60;3.75;;;7.70;45.90;;;;;;5073289;28;20041;-69
2022/03/12 11:29:21;;;;;;;7.90;4.20;;;7.80;47.60;;;;;;5073604;28;20066;-70
2022/03/12 11:31:56;;;;;;;7.55;4.10;;;7.90;48.60;;;;;;5073469;28;20017;-69
2022/03/12 11:34:29;;;;;;;11.55;6.22;;;7.90;49.50;;;;;;5074030;28;20441;-70
2022/03/12 11:37:05;;;;;;;11.85;6.05;;;7.90;53.40;;;;;;5071936;28;20024;-69
2022/03/12 11:39:37;;;;;;;10.50;5.97;;;8.00;53.90;;;;;;5074142;28;20028;-70
2022/03/12 11:42:15;;;;;;;9.35;4.97;;;8.00;53.50;;;;;;5077514;28;20028;-70
2022/03/12 11:44:47;;;;;;;11.43;5.60;;;8.10;53.10;;;;;;5075817;28;20460;-70
2022/03/12 11:47:33;;;;;;;;;;;8.10;52.60;;;;;;5077477;28;20055;-70
2022/03/12 11:50:01;;;;;;;13.07;5.30;;;8.10;53.20;;;;;;5075602;28;20349;-70
2022/03/12 11:52:27;;;;;;;10.65;4.82;;;8.20;53.00;;;;;;5076980;28;20028;-70
2022/03/12 11:54:54;;;;;;;9.80;4.65;;;8.20;52.30;;;;;;5077535;28;20021;-70
2022/03/12 11:57:28;;;;;;;7.32;4.57;;;8.20;50.70;;;;;;5076956;28;20059;-70
2022/03/12 11:59:57;;;;;;;9.80;4.85;;;8.30;50.00;;;;;;5077037;28;20078;-70
2022/03/12 12:02:34;;;;;;;9.38;4.93;;;8.40;51.00;;;;;;5076787;28;20059;-70
2022/03/12 12:05:07;;;;;;;8.23;4.57;;;8.50;50.70;;;;;;5076956;28;20111;-70
2022/03/12 12:07:47;;;;;;;8.43;4.80;;;8.60;51.10;;;;;;5076999;28;20540;-70
2022/03/12 12:10:16;;;;;;;10.60;5.07;;;8.70;51.30;;;;;;5076581;28;20048;-70
2022/03/12 12:12:46;;;;;;;9.57;4.78;;;8.90;50.10;;;;;;5076858;28;20100;-70
2022/03/12 12:15:17;;;;;;;7.70;4.28;;;9.00;48.90;;;;;;5076808;28;20021;-70
2022/03/12 12:17:44;;;;;;;6.30;3.58;;;9.10;49.80;;;;;;5076822;28;20028;-70
2022/03/12 12:20:12;;;;;;;8.90;4.70;;;9.20;45.40;;;;;;5077052;28;20024;-70
2022/03/12 12:22:39;;;;;;;11.93;4.85;;;9.30;49.80;;;;;;5076377;28;20020;-70
2022/03/12 12:25:06;;;;;;;9.23;3.70;;;9.50;51.90;;;;;;5076230;28;20020;-70
2022/03/12 12:27:51;;;;;;;5.68;3.05;;;9.60;50.10;;;;;;5076252;28;20031;-70
2022/03/12 12:30:39;;;;;;;8.25;3.53;;;9.70;44.70;;;;;;5076167;28;20028;-69
2022/03/12 12:33:24;;;;;;;9.35;4.75;;;9.80;47.30;;;;;;5075113;28;20024;-70
2022/03/12 12:36:08;;;;;;;9.25;4.57;;;9.90;47.00;;;;;;5074897;28;20028;-70
2022/03/12 12:38:35;;;;;;;12.07;5.18;;;10.00;47.00;;;;;;5076429;28;20016;-69
2022/03/12 12:41:03;;;;;;;12.55;5.55;;;10.10;47.30;;;;;;5076084;28;20477;-69
2022/03/12 12:43:39;;;;;;;9.90;4.43;;;10.20;46.20;;;;;;5076570;28;20024;-70
2022/03/12 12:46:17;;;;;;;9.75;4.20;;;10.30;46.80;;;;;;5076005;28;20047;-69